Time;durP1;ratioP1;P1;durP2;ratioP2;P2;SDS_P1;SDS_P2;PMS_P1;PMS_P2;Temp;Humidity;BMP_temperature;BMP_pressure;BME280_temperature;BME280_humidity;BME280_pressure;Samples;Min_cycle;Max_cycle;Signal;HPM_P1;HPM_P2
2024/01/22 00:00:08;;;;;;;14.05;6.20;;;;;;;;;;5010328;28;20435;-77
2024/01/22 00:02:38;;;;;;;11.52;5.50;;;;;;;;;;5008253;28;20304;-77
2024/01/22 00:05:04;;;;;;;8.68;4.85;;;;;;;;;;5007146;28;20044;-76
2024/01/22 00:07:31;;;;;;;9.63;5.55;;;;;;;;;;5006191;28;20042;-77
2024/01/22 00:09:56;;;;;;;13.50;6.20;;;;;;;;;;5007534;28;20025;-76
2024/01/22 00:12:22;;;;;;;11.68;5.90;;;;;;;;;;5011672;28;20049;-76
2024/01/22 00:14:48;;;;;;;9.00;5.05;;;;;;;;;;5006395;28;20038;-76
2024/01/22 00:17:14;;;;;;;10.27;5.72;;;;;;;;;;5008454;28;20353;-77
2024/01/22 00:19:40;;;;;;;10.82;5.68;;;;;;;;;;5012127;28;20077;-77
2024/01/22 00:22:06;;;;;;;10.05;5.13;;;;;;;;;;5010585;28;20045;-77
2024/01/22 00:24:32;;;;;;;20.20;8.48;;;;;;;;;;5010275;28;20037;-76
2024/01/22 00:26:57;;;;;;;18.92;7.80;;;;;;;;;;5011188;28;20095;-76
2024/01/22 00:29:23;;;;;;;14.85;6.00;;;;;;;;;;5011578;28;20091;-76
2024/01/22 00:31:50;;;;;;;20.00;8.90;;;;;;;;;;5011568;28;20072;-76
2024/01/22 00:34:16;;;;;;;12.15;6.55;;;;;;;;;;5009366;28;20034;-76
2024/01/22 00:36:41;;;;;;;11.82;6.30;;;;;;;;;;5010089;28;20038;-77
2024/01/22 00:39:07;;;;;;;17.25;7.70;;;;;;;;;;5010535;28;20030;-76
2024/01/22 00:41:33;;;;;;;18.65;8.75;;;;;;;;;;5022905;28;20447;-77
2024/01/22 00:43:58;;;;;;;11.48;5.82;;;;;;;;;;5031511;28;20033;-76
2024/01/22 00:46:24;;;;;;;14.15;7.53;;;;;;;;;;5029576;28;20029;-76
2024/01/22 00:48:50;;;;;;;15.70;7.13;;;;;;;;;;5030161;28;20549;-76
2024/01/22 00:51:16;;;;;;;19.88;8.77;;;;;;;;;;5031234;28;20500;-76
2024/01/22 00:53:42;;;;;;;12.02;6.10;;;;;;;;;;5029811;28;20029;-76
2024/01/22 00:56:07;;;;;;;13.20;6.82;;;;;;;;;;5030730;28;20040;-76
2024/01/22 00:58:34;;;;;;;12.80;6.53;;;;;;;;;;5031385;28;20034;-76
2024/01/22 01:01:00;;;;;;;29.42;10.20;;;;;;;;;;5031003;28;20026;-76
2024/01/22 01:03:25;;;;;;;17.90;7.45;;;;;;;;;;5030987;28;20333;-77
2024/01/22 01:05:51;;;;;;;11.80;5.40;;;;;;;;;;5029213;28;20029;-76
2024/01/22 01:08:17;;;;;;;9.90;4.72;;;;;;;;;;5029886;28;20516;-77
2024/01/22 01:10:42;;;;;;;12.55;4.75;;;;;;;;;;5029276;28;20057;-76
2024/01/22 01:13:08;;;;;;;17.50;6.93;;;;;;;;;;5029635;28;20033;-76
2024/01/22 01:15:34;;;;;;;9.23;4.47;;;;;;;;;;5030423;28;20491;-76
2024/01/22 01:17:59;;;;;;;8.45;4.57;;;;;;;;;;5029478;28;20037;-76
2024/01/22 01:20:25;;;;;;;10.15;4.60;;;;;;;;;;5031513;28;20030;-76
2024/01/22 01:22:51;;;;;;;9.57;4.43;;;;;;;;;;5034567;28;20029;-76
2024/01/22 01:25:17;;;;;;;8.45;4.55;;;;;;;;;;5033223;28;20026;-76
2024/01/22 01:27:42;;;;;;;9.02;4.35;;;;;;;;;;5034883;28;20025;-77
2024/01/22 01:30:10;;;;;;;8.05;4.82;;;;;;;;;;5035083;28;20390;-76
2024/01/22 01:32:36;;;;;;;8.40;4.30;;;;;;;;;;5034600;28;20117;-75
2024/01/22 01:35:02;;;;;;;8.10;4.07;;;;;;;;;;5033983;28;20506;-76
2024/01/22 01:37:27;;;;;;;9.48;5.25;;;;;;;;;;5033191;28;20021;-76
2024/01/22 01:39:53;;;;;;;10.23;4.80;;;;;;;;;;5033994;28;20033;-76
2024/01/22 01:42:19;;;;;;;7.50;4.75;;;;;;;;;;5033437;28;20067;-77
2024/01/22 01:44:51;;;;;;;9.02;4.20;;;;;;;;;;5021553;28;20053;-76
2024/01/22 01:47:18;;;;;;;7.20;4.00;;;;;;;;;;5014346;28;20030;-76
2024/01/22 01:49:45;;;;;;;12.52;5.13;;;;;;;;;;5025178;28;20045;-76
2024/01/22 01:52:12;;;;;;;8.07;4.22;;;;;;;;;;5034017;28;20044;-76
2024/01/22 01:54:40;;;;;;;9.90;4.43;;;;;;;;;;5033605;28;20036;-76
2024/01/22 01:57:10;;;;;;;8.38;4.57;;;;;;;;;;5034010;28;20033;-76
2024/01/22 01:59:36;;;;;;;8.38;3.80;;;;;;;;;;5032674;28;19917;-76
2024/01/22 02:02:02;;;;;;;7.38;3.75;;;;;;;;;;5034370;28;20025;-77
2024/01/22 02:04:29;;;;;;;9.85;5.05;;;;;;;;;;5032610;28;20029;-76
2024/01/22 02:06:56;;;;;;;12.25;5.93;;;;;;;;;;5032601;28;20102;-77
2024/01/22 02:09:21;;;;;;;10.57;4.35;;;;;;;;;;5033938;28;20028;-76
2024/01/22 02:11:47;;;;;;;9.07;4.40;;;;;;;;;;5032974;28;20395;-76
2024/01/22 02:14:14;;;;;;;8.27;4.32;;;;;;;;;;5033448;28;20030;-77
2024/01/22 02:16:41;;;;;;;6.72;4.45;;;;;;;;;;5032163;28;20041;-76
2024/01/22 02:19:07;;;;;;;8.88;4.85;;;;;;;;;;5033331;28;20083;-76
2024/01/22 02:21:33;;;;;;;8.77;3.78;;;;;;;;;;5032067;28;20029;-77
2024/01/22 02:23:58;;;;;;;11.80;4.97;;;;;;;;;;5012386;28;20030;-77
2024/01/22 02:26:24;;;;;;;9.75;4.78;;;;;;;;;;5013631;28;20053;-76
2024/01/22 02:28:50;;;;;;;8.70;4.53;;;;;;;;;;5012483;28;20072;-76
2024/01/22 02:31:16;;;;;;;7.85;3.90;;;;;;;;;;5013584;28;20026;-76
2024/01/22 02:33:42;;;;;;;8.05;4.00;;;;;;;;;;5012451;28;20045;-77
2024/01/22 02:36:08;;;;;;;6.10;3.90;;;;;;;;;;5013266;28;20030;-77
2024/01/22 02:38:33;;;;;;;7.40;4.00;;;;;;;;;;5013324;28;20072;-77
2024/01/22 02:40:59;;;;;;;7.30;3.63;;;;;;;;;;5013332;28;20418;-76
2024/01/22 02:43:25;;;;;;;6.22;3.47;;;;;;;;;;5012117;28;20025;-77
2024/01/22 02:45:51;;;;;;;7.57;3.65;;;;;;;;;;5011885;28;20503;-76
2024/01/22 02:48:16;;;;;;;5.28;3.30;;;;;;;;;;5012579;28;20037;-77
2024/01/22 02:50:42;;;;;;;4.82;3.08;;;;;;;;;;5012019;28;20040;-76
2024/01/22 02:53:08;;;;;;;5.82;3.58;;;;;;;;;;5013119;28;20038;-76
2024/01/22 02:55:33;;;;;;;5.72;3.28;;;;;;;;;;5026896;28;20037;-76
2024/01/22 02:57:59;;;;;;;6.70;3.42;;;;;;;;;;5031688;28;20376;-77
2024/01/22 03:00:25;;;;;;;6.13;3.40;;;;;;;;;;5019171;28;20440;-77
2024/01/22 03:02:50;;;;;;;6.68;3.22;;;;;;;;;;5013101;28;20029;-77
2024/01/22 03:05:17;;;;;;;6.85;3.78;;;;;;;;;;5012650;28;20097;-77
2024/01/22 03:07:42;;;;;;;12.25;4.88;;;;;;;;;;5008791;28;20388;-77
2024/01/22 03:10:08;;;;;;;9.02;4.28;;;;;;;;;;5013048;28;20022;-77
2024/01/22 03:12:34;;;;;;;9.48;4.28;;;;;;;;;;5013070;28;20026;-76
2024/01/22 03:15:00;;;;;;;13.10;4.40;;;;;;;;;;5011256;28;20099;-77
2024/01/22 03:17:25;;;;;;;6.80;3.92;;;;;;;;;;5011110;28;20044;-76
2024/01/22 03:19:51;;;;;;;6.90;3.67;;;;;;;;;;5011814;28;20069;-78
2024/01/22 03:22:17;;;;;;;7.68;4.00;;;;;;;;;;5011138;28;20033;-78
2024/01/22 03:24:46;;;;;;;8.00;3.85;;;;;;;;;;5012734;28;20022;-79
2024/01/22 03:27:12;;;;;;;7.57;3.97;;;;;;;;;;5012343;28;20033;-78
2024/01/22 03:29:37;;;;;;;7.57;4.55;;;;;;;;;;5011304;28;20072;-78
2024/01/22 03:32:04;;;;;;;9.43;4.50;;;;;;;;;;5010983;28;20040;-78
2024/01/22 03:34:29;;;;;;;12.52;4.30;;;;;;;;;;5011915;28;20109;-79
2024/01/22 03:36:56;;;;;;;11.23;5.03;;;;;;;;;;5010478;28;20112;-78
2024/01/22 03:39:21;;;;;;;15.35;4.65;;;;;;;;;;5011025;28;20045;-78
2024/01/22 03:41:47;;;;;;;11.88;4.95;;;;;;;;;;5011425;28;20061;-79
2024/01/22 03:44:14;;;;;;;10.80;4.10;;;;;;;;;;5012041;28;20034;-78
2024/01/22 03:46:41;;;;;;;6.82;3.05;;;;;;;;;;5013027;28;20041;-78
2024/01/22 03:49:06;;;;;;;14.07;4.47;;;;;;;;;;5012633;28;20037;-78
2024/01/22 03:51:32;;;;;;;15.15;5.00;;;;;;;;;;5012421;28;20030;-78
2024/01/22 03:53:58;;;;;;;7.97;2.85;;;;;;;;;;5007087;28;20030;-78
2024/01/22 03:56:23;;;;;;;5.68;3.10;;;;;;;;;;5011350;28;20098;-79
2024/01/22 03:58:50;;;;;;;5.90;2.85;;;;;;;;;;5012553;28;20030;-79
2024/01/22 04:01:22;;;;;;;5.90;3.20;;;;;;;;;;5010698;28;20509;-79
2024/01/22 04:03:50;;;;;;;6.53;3.10;;;;;;;;;;5010953;28;20042;-79
2024/01/22 04:06:16;;;;;;;7.03;3.08;;;;;;;;;;5012111;28;20101;-79
2024/01/22 04:08:42;;;;;;;7.60;3.78;;;;;;;;;;5012148;28;20026;-79
2024/01/22 04:11:08;;;;;;;6.22;3.40;;;;;;;;;;5012128;28;20559;-79
2024/01/22 04:13:34;;;;;;;7.72;3.10;;;;;;;;;;5012338;28;20026;-79
2024/01/22 04:16:00;;;;;;;8.15;3.92;;;;;;;;;;5012000;28;20582;-79
2024/01/22 04:18:26;;;;;;;19.85;8.15;;;;;;;;;;5011989;28;20026;-79
2024/01/22 04:20:52;;;;;;;13.90;3.55;;;;;;;;;;5010913;28;20380;-79
2024/01/22 04:23:17;;;;;;;8.18;3.47;;;;;;;;;;5012558;28;20476;-78
2024/01/22 04:25:44;;;;;;;11.48;3.80;;;;;;;;;;5010897;28;20038;-79
2024/01/22 04:28:10;;;;;;;7.05;4.10;;;;;;;;;;5011167;28;20058;-79
2024/01/22 04:30:35;;;;;;;8.90;4.03;;;;;;;;;;5011353;28;20534;-79
2024/01/22 04:33:01;;;;;;;7.90;4.22;;;;;;;;;;5011111;28;20472;-79
2024/01/22 04:35:27;;;;;;;6.18;4.05;;;;;;;;;;5010982;28;20112;-79
2024/01/22 04:37:53;;;;;;;7.00;3.88;;;;;;;;;;5011281;28;20176;-79
2024/01/22 04:40:18;;;;;;;5.80;3.47;;;;;;;;;;5011987;28;20034;-79
2024/01/22 04:42:44;;;;;;;7.97;3.47;;;;;;;;;;4994626;28;20404;-79
2024/01/22 04:45:10;;;;;;;7.78;4.07;;;;;;;;;;5009915;28;20021;-79
2024/01/22 04:47:37;;;;;;;8.15;3.58;;;;;;;;;;5008521;28;20034;-79
2024/01/22 04:50:04;;;;;;;8.32;4.18;;;;;;;;;;5010657;28;20038;-79
2024/01/22 04:52:30;;;;;;;8.07;4.07;;;;;;;;;;5009940;28;20062;-79
2024/01/22 04:55:15;;;;;;;9.63;4.72;;;;;;;;;;5013124;28;20044;-81
2024/01/22 04:57:41;;;;;;;12.00;5.28;;;;;;;;;;5014428;28;20080;-79
2024/01/22 05:00:07;;;;;;;12.45;5.40;;;;;;;;;;5015142;28;20026;-80
2024/01/22 05:02:33;;;;;;;10.68;4.70;;;;;;;;;;5014172;28;20034;-80
2024/01/22 05:05:01;;;;;;;7.13;4.30;;;;;;;;;;5016093;28;20025;-79
2024/01/22 05:07:27;;;;;;;9.65;4.45;;;;;;;;;;5014076;28;20034;-80
2024/01/22 05:10:01;;;;;;;9.02;4.60;;;;;;;;;;5013667;28;20037;-80
2024/01/22 05:12:27;;;;;;;11.07;5.38;;;;;;;;;;5013606;28;20513;-80
2024/01/22 05:14:53;;;;;;;9.98;4.88;;;;;;;;;;5013659;28;20487;-79
2024/01/22 05:17:19;;;;;;;14.30;5.80;;;;;;;;;;5014914;28;20061;-81
2024/01/22 05:19:45;;;;;;;9.48;4.72;;;;;;;;;;5015002;28;20055;-81
2024/01/22 05:22:11;;;;;;;11.30;5.40;;;;;;;;;;4997503;28;20077;-80
2024/01/22 05:24:37;;;;;;;7.43;3.97;;;;;;;;;;5015373;28;20021;-79
2024/01/22 05:27:04;;;;;;;8.20;4.07;;;;;;;;;;5015492;28;20049;-80
2024/01/22 05:29:30;;;;;;;9.23;4.28;;;;;;;;;;5015389;28;20575;-80
2024/01/22 05:31:56;;;;;;;10.55;4.05;;;;;;;;;;5014016;28;20049;-80
2024/01/22 05:34:22;;;;;;;9.75;3.80;;;;;;;;;;5013811;28;20484;-80
2024/01/22 05:36:48;;;;;;;7.35;4.22;;;;;;;;;;5013710;28;20042;-80
2024/01/22 05:39:15;;;;;;;14.13;5.50;;;;;;;;;;5013499;28;20033;-80
2024/01/22 05:41:41;;;;;;;13.73;5.20;;;;;;;;;;5014549;28;20123;-80
2024/01/22 05:44:08;;;;;;;8.48;4.53;;;;;;;;;;4996427;28;20586;-80
2024/01/22 05:46:34;;;;;;;8.98;4.82;;;;;;;;;;5013101;28;20022;-80
2024/01/22 05:48:59;;;;;;;9.68;4.88;;;;;;;;;;4997007;28;20095;-80
2024/01/22 05:51:25;;;;;;;10.02;5.70;;;;;;;;;;5014346;28;20050;-80
2024/01/22 05:53:51;;;;;;;16.52;6.28;;;;;;;;;;5014718;28;20032;-81
2024/01/22 05:56:35;;;;;;;13.38;5.90;;;;;;;;;;5014158;28;20140;-78
2024/01/22 05:59:01;;;;;;;11.32;6.13;;;;;;;;;;5014157;28;20498;-79
2024/01/22 06:01:31;;;;;;;11.80;6.25;;;;;;;;;;5014024;28;20029;-80
2024/01/22 06:03:57;;;;;;;12.10;5.93;;;;;;;;;;5012138;28;20140;-80
2024/01/22 06:06:24;;;;;;;13.00;6.70;;;;;;;;;;5012975;28;20061;-79
2024/01/22 06:08:50;;;;;;;15.57;6.40;;;;;;;;;;5014277;28;20045;-79
2024/01/22 06:11:18;;;;;;;12.63;6.25;;;;;;;;;;5012093;28;20064;-80
2024/01/22 06:13:45;;;;;;;14.27;6.30;;;;;;;;;;5012188;28;20033;-80
2024/01/22 06:16:14;;;;;;;12.40;5.75;;;;;;;;;;5013283;28;20038;-80
2024/01/22 06:18:42;;;;;;;13.52;6.60;;;;;;;;;;5013573;28;20100;-80
2024/01/22 06:21:17;;;;;;;13.20;6.47;;;;;;;;;;5017402;28;20129;-81
2024/01/22 06:23:43;;;;;;;12.70;6.28;;;;;;;;;;5018904;28;20030;-79
2024/01/22 06:26:09;;;;;;;13.10;6.00;;;;;;;;;;5011864;28;20053;-80
2024/01/22 06:28:35;;;;;;;16.42;6.50;;;;;;;;;;5013522;28;20472;-79
2024/01/22 06:31:01;;;;;;;17.52;6.47;;;;;;;;;;5011733;28;20046;-79
2024/01/22 06:33:26;;;;;;;13.60;6.68;;;;;;;;;;5011640;28;20041;-79
2024/01/22 06:35:53;;;;;;;10.85;5.50;;;;;;;;;;4996106;28;20036;-79
2024/01/22 06:38:20;;;;;;;12.10;5.93;;;;;;;;;;5011963;28;20038;-79
2024/01/22 06:40:46;;;;;;;9.57;5.20;;;;;;;;;;5012507;28;20057;-80
2024/01/22 06:43:13;;;;;;;9.38;4.47;;;;;;;;;;5004882;28;20372;-78
2024/01/22 06:45:42;;;;;;;6.65;4.18;;;;;;;;;;5012901;28;20034;-80
2024/01/22 06:48:09;;;;;;;9.60;4.63;;;;;;;;;;5014979;28;20112;-79
2024/01/22 06:50:35;;;;;;;11.02;5.70;;;;;;;;;;5026164;28;20561;-79
2024/01/22 06:53:01;;;;;;;12.02;6.50;;;;;;;;;;5011465;28;20038;-80
2024/01/22 06:55:26;;;;;;;14.05;5.47;;;;;;;;;;5013404;28;20064;-79
2024/01/22 06:57:52;;;;;;;14.10;6.80;;;;;;;;;;5011221;28;20462;-80
2024/01/22 07:00:19;;;;;;;15.88;8.00;;;;;;;;;;5012125;28;20365;-80
2024/01/22 07:02:49;;;;;;;11.55;6.10;;;;;;;;;;5012665;28;20068;-79
2024/01/22 07:05:16;;;;;;;12.63;6.05;;;;;;;;;;5011659;28;20038;-79
2024/01/22 07:07:42;;;;;;;10.10;5.38;;;;;;;;;;5011556;28;20468;-79
2024/01/22 07:10:09;;;;;;;11.45;5.75;;;;;;;;;;5011700;28;20108;-79
2024/01/22 07:12:35;;;;;;;10.38;6.07;;;;;;;;;;5009477;28;20029;-79
2024/01/22 07:15:04;;;;;;;8.93;5.78;;;;;;;;;;5011925;28;20476;-79
2024/01/22 07:17:30;;;;;;;10.98;6.03;;;;;;;;;;5009729;28;20038;-79
2024/01/22 07:19:56;;;;;;;11.32;6.32;;;;;;;;;;5011161;28;20048;-80
2024/01/22 07:22:23;;;;;;;11.05;5.78;;;;;;;;;;5011237;28;20138;-79
2024/01/22 07:24:51;;;;;;;16.27;6.43;;;;;;;;;;5011418;28;20038;-79
2024/01/22 07:27:18;;;;;;;19.27;7.70;;;;;;;;;;5010500;28;20061;-79
2024/01/22 07:29:45;;;;;;;26.20;10.27;;;;;;;;;;5010961;28;20045;-79
2024/01/22 07:32:12;;;;;;;26.38;10.73;;;;;;;;;;5012525;28;20030;-80
2024/01/22 07:34:38;;;;;;;34.63;12.30;;;;;;;;;;5012289;28;20056;-79
2024/01/22 07:37:06;;;;;;;24.75;10.30;;;;;;;;;;5012294;28;20034;-79
2024/01/22 07:39:33;;;;;;;23.60;9.55;;;;;;;;;;5011512;28;20034;-78
2024/01/22 07:42:01;;;;;;;19.58;8.57;;;;;;;;;;5012017;28;20036;-79
2024/01/22 07:44:27;;;;;;;19.25;8.25;;;;;;;;;;5004117;28;20040;-80
2024/01/22 07:46:53;;;;;;;17.08;7.95;;;;;;;;;;5011878;28;20029;-78
2024/01/22 07:49:18;;;;;;;14.70;6.90;;;;;;;;;;5010537;28;20038;-80
2024/01/22 07:51:44;;;;;;;18.92;8.43;;;;;;;;;;5011555;28;20092;-78
2024/01/22 07:54:10;;;;;;;14.63;8.00;;;;;;;;;;5011238;28;20036;-79
2024/01/22 07:56:35;;;;;;;22.13;7.07;;;;;;;;;;5017798;28;20107;-77
2024/01/22 07:59:01;;;;;;;15.35;6.22;;;;;;;;;;5011056;28;20444;-78
2024/01/22 08:01:28;;;;;;;10.00;4.82;;;;;;;;;;5010504;28;20033;-77
2024/01/22 08:03:54;;;;;;;10.15;5.38;;;;;;;;;;5011478;28;20028;-78
2024/01/22 08:06:21;;;;;;;7.63;5.10;;;;;;;;;;5011727;28;20057;-78
2024/01/22 08:08:47;;;;;;;9.95;5.18;;;;;;;;;;5011550;28;20029;-79
2024/01/22 08:11:13;;;;;;;8.27;4.95;;;;;;;;;;5011186;28;20088;-79
2024/01/22 08:13:40;;;;;;;6.85;4.15;;;;;;;;;;5011351;28;20113;-79
2024/01/22 08:16:06;;;;;;;9.95;4.88;;;;;;;;;;5011241;28;20034;-77
2024/01/22 08:18:33;;;;;;;7.72;4.20;;;;;;;;;;4993354;28;20041;-79
2024/01/22 08:21:02;;;;;;;7.70;4.25;;;;;;;;;;5011393;28;20038;-78
2024/01/22 08:23:29;;;;;;;9.70;4.55;;;;;;;;;;5010477;28;20059;-79
2024/01/22 08:25:55;;;;;;;9.80;4.63;;;;;;;;;;5011152;28;20496;-78
2024/01/22 08:28:21;;;;;;;10.65;5.18;;;;;;;;;;5010962;28;20171;-79
2024/01/22 08:30:47;;;;;;;10.60;5.20;;;;;;;;;;5009254;28;20041;-79
2024/01/22 08:33:13;;;;;;;22.20;6.72;;;;;;;;;;5009963;28;20052;-77
2024/01/22 08:35:39;;;;;;;9.38;4.75;;;;;;;;;;5011214;28;20049;-80
2024/01/22 08:38:05;;;;;;;10.60;5.60;;;;;;;;;;5010080;28;20384;-79
2024/01/22 08:40:31;;;;;;;11.85;5.18;;;;;;;;;;5010601;28;20045;-77
2024/01/22 08:42:57;;;;;;;8.38;5.03;;;;;;;;;;5011441;28;20030;-79
2024/01/22 08:45:23;;;;;;;8.90;5.20;;;;;;;;;;5008028;28;20053;-80
2024/01/22 08:47:50;;;;;;;16.02;6.50;;;;;;;;;;5001248;28;20042;-80
2024/01/22 08:50:23;;;;;;;10.45;5.40;;;;;;;;;;4991970;28;20593;-79
2024/01/22 08:52:50;;;;;;;17.63;8.05;;;;;;;;;;5009513;28;20089;-79
2024/01/22 08:55:18;;;;;;;17.17;6.63;;;;;;;;;;5010392;28;20077;-80
2024/01/22 08:57:45;;;;;;;10.77;5.45;;;;;;;;;;4993666;28;20038;-79
2024/01/22 09:00:13;;;;;;;11.80;5.20;;;;;;;;;;5011087;28;20116;-77
2024/01/22 09:02:40;;;;;;;12.20;5.90;;;;;;;;;;5010861;28;20049;-79
2024/01/22 09:05:09;;;;;;;10.73;4.47;;;;;;;;;;5009449;28;20026;-79
2024/01/22 09:07:36;;;;;;;9.05;4.35;;;;;;;;;;5010691;28;20030;-80
2024/01/22 09:10:07;;;;;;;4.82;2.75;;;;;;;;;;5009409;28;20108;-81
2024/01/22 09:12:35;;;;;;;11.13;4.25;;;;;;;;;;5009330;28;20062;-77
2024/01/22 09:15:02;;;;;;;8.57;4.00;;;;;;;;;;5010833;28;20036;-79
2024/01/22 09:17:29;;;;;;;5.47;3.60;;;;;;;;;;5009165;28;20030;-77
2024/01/22 09:19:57;;;;;;;5.25;3.08;;;;;;;;;;5009653;28;20042;-77
2024/01/22 09:22:23;;;;;;;6.43;3.75;;;;;;;;;;5009220;28;20124;-78
2024/01/22 09:24:50;;;;;;;9.07;3.92;;;;;;;;;;5010671;28;20099;-78
2024/01/22 09:27:16;;;;;;;8.27;4.38;;;;;;;;;;5008977;28;20037;-78
2024/01/22 09:29:43;;;;;;;7.22;3.65;;;;;;;;;;5009590;28;20034;-80
2024/01/22 09:32:09;;;;;;;10.05;3.20;;;;;;;;;;5019119;28;20026;-80
2024/01/22 09:34:40;;;;;;;6.07;3.42;;;;;;;;;;5010918;28;20029;-79
2024/01/22 09:37:06;;;;;;;7.85;3.65;;;;;;;;;;5010902;28;20049;-80
2024/01/22 09:39:35;;;;;;;5.43;2.90;;;;;;;;;;5010917;28;20181;-80
2024/01/22 09:42:02;;;;;;;7.47;3.00;;;;;;;;;;5010586;28;20499;-79
2024/01/22 09:44:28;;;;;;;5.45;2.97;;;;;;;;;;5013861;28;20041;-80
2024/01/22 09:46:55;;;;;;;6.45;3.53;;;;;;;;;;5012555;28;20457;-80
2024/01/22 09:49:21;;;;;;;12.45;3.38;;;;;;;;;;5012322;28;20070;-80
2024/01/22 09:51:47;;;;;;;7.22;3.45;;;;;;;;;;4993113;28;20050;-80
2024/01/22 09:54:20;;;;;;;8.73;2.95;;;;;;;;;;4993103;28;20049;-78
2024/01/22 09:56:54;;;;;;;5.97;3.28;;;;;;;;;;5008643;28;20073;-81
2024/01/22 09:59:24;;;;;;;4.85;3.45;;;;;;;;;;4992703;28;20054;-80
2024/01/22 10:01:52;;;;;;;6.82;3.50;;;;;;;;;;4996190;28;20042;-81
2024/01/22 10:04:19;;;;;;;5.75;2.65;;;;;;;;;;5014637;28;20029;-80
2024/01/22 10:06:48;;;;;;;9.25;3.90;;;;;;;;;;4999273;28;20100;-84
2024/01/22 10:09:17;;;;;;;10.35;3.33;;;;;;;;;;5013210;28;20034;-80
2024/01/22 10:11:47;;;;;;;6.13;3.55;;;;;;;;;;5015519;28;20104;-81
2024/01/22 10:14:14;;;;;;;6.68;3.78;;;;;;;;;;5018480;28;20076;-79
2024/01/22 10:16:40;;;;;;;6.63;2.90;;;;;;;;;;5013611;28;20069;-80
2024/01/22 10:19:09;;;;;;;9.00;3.80;;;;;;;;;;5013704;28;20064;-80
2024/01/22 10:21:36;;;;;;;8.25;3.63;;;;;;;;;;5013888;28;20069;-80
2024/01/22 10:24:08;;;;;;;5.07;3.08;;;;;;;;;;5026054;28;20041;-80
2024/01/22 10:26:46;;;;;;;5.90;2.83;;;;;;;;;;5030211;28;20037;-80
2024/01/22 10:29:22;;;;;;;7.57;3.20;;;;;;;;;;5013559;28;20368;-81
2024/01/22 10:32:02;;;;;;;5.38;3.58;;;;;;;;;;5011787;28;20454;-80
2024/01/22 10:34:30;;;;;;;3.65;2.58;;;;;;;;;;5017878;28;20120;-81
2024/01/22 10:37:10;;;;;;;7.30;3.08;;;;;;;;;;5013219;28;20076;-80
2024/01/22 10:39:41;;;;;;;5.72;3.13;;;;;;;;;;5013323;28;20400;-82
2024/01/22 10:42:07;;;;;;;4.50;2.63;;;;;;;;;;5014454;28;20402;-81
2024/01/22 10:44:36;;;;;;;5.65;2.58;;;;;;;;;;5032809;28;20021;-81
2024/01/22 10:47:06;;;;;;;3.60;2.42;;;;;;;;;;5031724;28;20124;-81
2024/01/22 10:49:33;;;;;;;6.78;2.90;;;;;;;;;;5033326;28;20448;-81
2024/01/22 10:52:01;;;;;;;9.27;2.67;;;;;;;;;;5021616;28;20034;-81
2024/01/22 10:54:30;;;;;;;6.45;2.30;;;;;;;;;;5012140;28;20050;-81
2024/01/22 10:57:53;;;;;;;5.15;2.28;;;;;;;;;;5014389;28;20224;-81
2024/01/22 11:00:20;;;;;;;4.65;2.25;;;;;;;;;;5001360;28;20053;-82
2024/01/22 11:02:53;;;;;;;5.20;2.50;;;;;;;;;;5011412;28;20076;-81
2024/01/22 11:05:20;;;;;;;8.18;2.30;;;;;;;;;;5013143;28;20054;-81
2024/01/22 11:07:52;;;;;;;6.75;2.67;;;;;;;;;;5012720;28;20038;-81
2024/01/22 11:10:18;;;;;;;4.07;2.20;;;;;;;;;;5011256;28;20090;-79
2024/01/22 11:12:50;;;;;;;6.22;2.75;;;;;;;;;;4994516;28;20112;-80
2024/01/22 11:15:16;;;;;;;6.00;2.50;;;;;;;;;;4993389;28;20500;-80
2024/01/22 11:17:47;;;;;;;3.63;2.08;;;;;;;;;;5010933;28;20113;-80
2024/01/22 11:20:21;;;;;;;14.48;2.70;;;;;;;;;;5010003;28;20053;-79
2024/01/22 11:23:02;;;;;;;6.90;2.22;;;;;;;;;;5010987;28;20029;-79
2024/01/22 11:25:29;;;;;;;7.35;2.47;;;;;;;;;;5012265;28;20030;-80
2024/01/22 11:28:03;;;;;;;4.25;2.13;;;;;;;;;;5012162;28;20101;-79
2024/01/22 11:30:41;;;;;;;3.10;1.50;;;;;;;;;;5011581;28;20033;-78
2024/01/22 11:33:25;;;;;;;9.00;2.63;;;;;;;;;;5012266;28;20038;-79
2024/01/22 11:35:52;;;;;;;4.10;2.40;;;;;;;;;;5010515;28;20033;-79
2024/01/22 11:38:42;;;;;;;5.80;2.20;;;;;;;;;;5011849;28;20429;-79
2024/01/22 11:41:08;;;;;;;3.10;1.85;;;;;;;;;;5011938;28;20503;-79
2024/01/22 11:43:34;;;;;;;7.07;2.75;;;;;;;;;;5011810;28;20045;-77
2024/01/22 11:46:15;;;;;;;4.05;1.98;;;;;;;;;;5011508;28;20135;-79
2024/01/22 11:48:42;;;;;;;2.35;1.33;;;;;;;;;;5013339;28;20424;-79
2024/01/22 11:51:08;;;;;;;3.38;1.65;;;;;;;;;;4993801;28;20113;-80
2024/01/22 11:53:53;;;;;;;26.13;4.20;;;;;;;;;;4994057;28;20036;-78
2024/01/22 11:56:21;;;;;;;9.55;2.97;;;;;;;;;;5010518;28;20494;-79
2024/01/22 11:58:47;;;;;;;3.97;2.10;;;;;;;;;;5011478;28;20208;-78
2024/01/22 12:01:13;;;;;;;3.88;1.83;;;;;;;;;;5011110;28;20041;-79
2024/01/22 12:03:39;;;;;;;3.35;2.00;;;;;;;;;;4993668;28;20044;-79
2024/01/22 12:06:07;;;;;;;7.00;2.88;;;;;;;;;;5010190;28;20074;-78
2024/01/22 12:08:34;;;;;;;8.57;3.08;;;;;;;;;;5011203;28;20113;-79
2024/01/22 12:11:11;;;;;;;3.97;2.50;;;;;;;;;;5010313;28;20137;-79
2024/01/22 12:13:40;;;;;;;4.88;2.03;;;;;;;;;;5010515;28;20518;-78
2024/01/22 12:16:19;;;;;;;5.10;2.42;;;;;;;;;;4994564;28;20053;-78
2024/01/22 12:18:45;;;;;;;3.28;1.80;;;;;;;;;;5009697;28;20041;-80
2024/01/22 12:21:13;;;;;;;5.10;2.22;;;;;;;;;;5010933;28;20037;-80
2024/01/22 12:23:39;;;;;;;4.68;2.30;;;;;;;;;;5010204;28;20048;-80
2024/01/22 12:26:14;;;;;;;15.60;3.35;;;;;;;;;;5010051;28;20029;-79
2024/01/22 12:28:41;;;;;;;7.57;2.63;;;;;;;;;;5010711;28;20092;-79
2024/01/22 12:31:09;;;;;;;7.90;3.13;;;;;;;;;;5011633;28;20037;-79
2024/01/22 12:33:36;;;;;;;6.40;3.15;;;;;;;;;;5010974;28;20172;-80
2024/01/22 12:36:11;;;;;;;4.93;2.45;;;;;;;;;;4978848;28;20092;-78
2024/01/22 12:38:54;;;;;;;8.25;2.25;;;;;;;;;;5013061;28;20176;-78
2024/01/22 12:41:23;;;;;;;6.60;2.78;;;;;;;;;;5012120;28;20541;-80
2024/01/22 12:43:49;;;;;;;7.95;2.92;;;;;;;;;;5011728;28;20037;-80
2024/01/22 12:46:19;;;;;;;7.20;2.75;;;;;;;;;;5009952;28;20025;-80
2024/01/22 12:48:45;;;;;;;5.68;3.20;;;;;;;;;;4994350;28;20030;-80
2024/01/22 12:51:12;;;;;;;22.83;11.27;;;;;;;;;;5011840;28;20152;-80
2024/01/22 12:53:40;;;;;;;9.32;3.80;;;;;;;;;;5011965;28;20041;-79
2024/01/22 12:56:06;;;;;;;17.15;4.80;;;;;;;;;;5010032;28;20056;-80
2024/01/22 12:58:36;;;;;;;5.30;3.10;;;;;;;;;;5010092;28;20038;-80
2024/01/22 13:01:04;;;;;;;5.97;3.00;;;;;;;;;;5011443;28;20033;-80
2024/01/22 13:03:29;;;;;;;7.50;3.22;;;;;;;;;;4993436;28;20466;-80
2024/01/22 13:05:55;;;;;;;22.92;5.78;;;;;;;;;;5010539;28;20088;-81
2024/01/22 13:08:21;;;;;;;4.95;3.33;;;;;;;;;;4994149;28;20128;-79
2024/01/22 13:10:47;;;;;;;8.63;3.75;;;;;;;;;;5011193;28;20057;-80
2024/01/22 13:13:15;;;;;;;16.55;4.30;;;;;;;;;;5011763;28;20038;-79
2024/01/22 13:15:41;;;;;;;14.38;7.40;;;;;;;;;;5012172;28;20038;-80
2024/01/22 13:18:09;;;;;;;4.65;2.60;;;;;;;;;;5012877;28;20490;-81
2024/01/22 13:20:35;;;;;;;4.57;2.80;;;;;;;;;;5015069;28;20044;-81
2024/01/22 13:23:05;;;;;;;21.65;4.55;;;;;;;;;;5014756;28;20550;-81
2024/01/22 13:25:31;;;;;;;11.00;2.83;;;;;;;;;;5014306;28;20499;-79
2024/01/22 13:27:57;;;;;;;5.03;2.75;;;;;;;;;;5014782;28;20033;-79
2024/01/22 13:30:27;;;;;;;7.68;2.90;;;;;;;;;;5013500;28;20033;-81
2024/01/22 13:32:53;;;;;;;8.02;4.50;;;;;;;;;;5014805;28;20033;-80
2024/01/22 13:35:20;;;;;;;7.00;3.00;;;;;;;;;;5014398;28;20061;-79
2024/01/22 13:37:45;;;;;;;17.15;3.83;;;;;;;;;;5014761;28;20034;-77
2024/01/22 13:40:13;;;;;;;11.10;2.35;;;;;;;;;;5015148;28;20042;-80
2024/01/22 13:42:39;;;;;;;7.20;2.78;;;;;;;;;;5014440;28;20096;-79
2024/01/22 13:45:08;;;;;;;9.15;2.78;;;;;;;;;;5014666;28;20433;-81
2024/01/22 13:47:34;;;;;;;6.00;2.50;;;;;;;;;;5013391;28;20044;-80
2024/01/22 13:50:03;;;;;;;5.00;2.90;;;;;;;;;;5013382;28;20038;-80
2024/01/22 13:52:34;;;;;;;10.27;3.80;;;;;;;;;;5013604;28;20136;-79
2024/01/22 13:55:00;;;;;;;7.53;3.78;;;;;;;;;;5015033;28;20083;-79
2024/01/22 13:57:25;;;;;;;8.80;2.85;;;;;;;;;;5014048;28;20080;-78
2024/01/22 13:59:51;;;;;;;9.70;3.28;;;;;;;;;;5012756;28;20053;-79
2024/01/22 14:02:17;;;;;;;5.85;3.00;;;;;;;;;;5012851;28;20041;-80
2024/01/22 14:04:44;;;;;;;8.43;3.60;;;;;;;;;;5014381;28;20030;-80
2024/01/22 14:07:11;;;;;;;8.65;3.20;;;;;;;;;;5012766;28;20048;-80
2024/01/22 14:09:38;;;;;;;12.57;4.40;;;;;;;;;;5014074;28;20040;-79
2024/01/22 14:12:04;;;;;;;6.50;3.15;;;;;;;;;;5013935;28;20475;-79
2024/01/22 14:14:31;;;;;;;6.80;2.80;;;;;;;;;;5013525;28;20038;-80
2024/01/22 14:16:59;;;;;;;7.63;3.53;;;;;;;;;;5012860;28;20403;-81
2024/01/22 14:19:25;;;;;;;13.60;5.07;;;;;;;;;;4996773;28;20036;-79
2024/01/22 14:21:51;;;;;;;16.23;6.10;;;;;;;;;;5013006;28;20099;-80
2024/01/22 14:24:17;;;;;;;16.52;6.90;;;;;;;;;;5013907;28;20484;-78
2024/01/22 14:26:44;;;;;;;10.70;5.15;;;;;;;;;;5014067;28;20036;-78
2024/01/22 14:29:09;;;;;;;6.30;2.67;;;;;;;;;;5016360;28;20085;-78
2024/01/22 14:31:36;;;;;;;14.55;3.13;;;;;;;;;;5012401;28;20034;-79
2024/01/22 14:34:02;;;;;;;6.30;3.40;;;;;;;;;;5011948;28;20029;-79
2024/01/22 14:36:27;;;;;;;10.73;3.00;;;;;;;;;;5014604;28;20046;-79
2024/01/22 14:38:53;;;;;;;5.28;2.17;;;;;;;;;;5012160;28;20045;-80